sensor_id;sensor_type;location;lat;lon;timestamp;temperature;humidity
6666;DHT22;3369;49.906;8.598;2022-11-30T00:02:15;7.00;99.90
6666;DHT22;3369;49.906;8.598;2022-11-30T00:04:41;7.00;99.90
6666;DHT22;3369;49.906;8.598;2022-11-30T00:07:07;7.00;99.90
6666;DHT22;3369;49.906;8.598;2022-11-30T00:09:32;7.00;99.90
6666;DHT22;3369;49.906;8.598;2022-11-30T00:11:58;7.00;99.90
6666;DHT22;3369;49.906;8.598;2022-11-30T00:14:23;7.00;99.90
6666;DHT22;3369;49.906;8.598;2022-11-30T00:16:49;6.90;99.90
6666;DHT22;3369;49.906;8.598;2022-11-30T00:19:14;6.90;99.90
6666;DHT22;3369;49.906;8.598;2022-11-30T00:21:40;6.90;99.90
6666;DHT22;3369;49.906;8.598;2022-11-30T00:24:06;6.90;99.90
6666;DHT22;3369;49.906;8.598;2022-11-30T00:26:31;6.90;99.90
6666;DHT22;3369;49.906;8.598;2022-11-30T00:28:57;6.90;99.90
6666;DHT22;3369;49.906;8.598;2022-11-30T00:31:23;6.90;99.90
6666;DHT22;3369;49.906;8.598;2022-11-30T00:33:49;7.00;99.90
6666;DHT22;3369;49.906;8.598;2022-11-30T00:36:20;6.90;99.90
6666;DHT22;3369;49.906;8.598;2022-11-30T00:38:48;6.90;99.90
6666;DHT22;3369;49.906;8.598;2022-11-30T00:41:14;7.00;99.90
6666;DHT22;3369;49.906;8.598;2022-11-30T00:43:40;6.90;99.90
6666;DHT22;3369;49.906;8.598;2022-11-30T00:46:06;6.90;99.90
6666;DHT22;3369;49.906;8.598;2022-11-30T00:48:36;6.90;99.90
6666;DHT22;3369;49.906;8.598;2022-11-30T00:51:01;6.90;99.90
6666;DHT22;3369;49.906;8.598;2022-11-30T00:53:27;6.90;99.90
6666;DHT22;3369;49.906;8.598;2022-11-30T00:55:53;6.90;99.90
6666;DHT22;3369;49.906;8.598;2022-11-30T00:58:18;6.90;99.90
6666;DHT22;3369;49.906;8.598;2022-11-30T01:00:44;6.90;99.90
6666;DHT22;3369;49.906;8.598;2022-11-30T01:03:11;6.90;99.90
6666;DHT22;3369;49.906;8.598;2022-11-30T01:05:37;6.90;99.90
6666;DHT22;3369;49.906;8.598;2022-11-30T01:08:05;6.90;99.90
6666;DHT22;3369;49.906;8.598;2022-11-30T01:10:33;6.90;99.90
6666;DHT22;3369;49.906;8.598;2022-11-30T01:13:00;6.90;99.90
6666;DHT22;3369;49.906;8.598;2022-11-30T01:15:26;6.90;99.90
6666;DHT22;3369;49.906;8.598;2022-11-30T01:17:51;6.90;99.90
6666;DHT22;3369;49.906;8.598;2022-11-30T01:20:17;6.90;99.90
6666;DHT22;3369;49.906;8.598;2022-11-30T01:22:43;6.90;99.90
6666;DHT22;3369;49.906;8.598;2022-11-30T01:25:09;7.00;99.90
6666;DHT22;3369;49.906;8.598;2022-11-30T01:27:34;6.90;99.90
6666;DHT22;3369;49.906;8.598;2022-11-30T01:30:00;6.90;99.90
6666;DHT22;3369;49.906;8.598;2022-11-30T01:32:26;6.90;99.90
6666;DHT22;3369;49.906;8.598;2022-11-30T01:34:52;6.90;99.90
6666;DHT22;3369;49.906;8.598;2022-11-30T01:37:18;6.90;99.90
6666;DHT22;3369;49.906;8.598;2022-11-30T01:39:43;6.90;99.90
6666;DHT22;3369;49.906;8.598;2022-11-30T01:42:19;6.90;99.90
6666;DHT22;3369;49.906;8.598;2022-11-30T01:44:58;7.00;99.90
6666;DHT22;3369;49.906;8.598;2022-11-30T01:47:50;6.90;99.90
6666;DHT22;3369;49.906;8.598;2022-11-30T01:50:22;6.90;99.90
6666;DHT22;3369;49.906;8.598;2022-11-30T01:52:53;6.90;99.90
6666;DHT22;3369;49.906;8.598;2022-11-30T01:55:26;6.90;99.90
6666;DHT22;3369;49.906;8.598;2022-11-30T01:57:58;6.90;99.90
6666;DHT22;3369;49.906;8.598;2022-11-30T02:00:25;6.90;99.90
6666;DHT22;3369;49.906;8.598;2022-11-30T02:05:37;7.00;99.90
6666;DHT22;3369;49.906;8.598;2022-11-30T02:08:04;7.00;99.90
6666;DHT22;3369;49.906;8.598;2022-11-30T02:10:37;7.00;99.90
6666;DHT22;3369;49.906;8.598;2022-11-30T02:16:02;7.00;99.90
6666;DHT22;3369;49.906;8.598;2022-11-30T02:39:44;6.80;99.90
6666;DHT22;3369;49.906;8.598;2022-11-30T02:42:11;6.80;99.90
6666;DHT22;3369;49.906;8.598;2022-11-30T02:44:42;6.80;99.90
6666;DHT22;3369;49.906;8.598;2022-11-30T02:47:21;6.80;99.90
6666;DHT22;3369;49.906;8.598;2022-11-30T02:49:55;6.80;99.90
6666;DHT22;3369;49.906;8.598;2022-11-30T02:52:25;6.80;99.90
6666;DHT22;3369;49.906;8.598;2022-11-30T02:54:57;6.80;99.90
6666;DHT22;3369;49.906;8.598;2022-11-30T02:57:22;6.70;99.90
6666;DHT22;3369;49.906;8.598;2022-11-30T02:59:48;6.80;99.90
6666;DHT22;3369;49.906;8.598;2022-11-30T03:02:14;6.80;99.90
6666;DHT22;3369;49.906;8.598;2022-11-30T03:04:40;6.80;99.90
6666;DHT22;3369;49.906;8.598;2022-11-30T03:07:05;6.80;99.90
6666;DHT22;3369;49.906;8.598;2022-11-30T03:09:31;6.90;99.90
6666;DHT22;3369;49.906;8.598;2022-11-30T03:11:56;6.80;99.90
6666;DHT22;3369;49.906;8.598;2022-11-30T03:14:22;6.90;99.90
6666;DHT22;3369;49.906;8.598;2022-11-30T03:16:48;6.90;99.90
6666;DHT22;3369;49.906;8.598;2022-11-30T03:19:13;6.90;99.90
6666;DHT22;3369;49.906;8.598;2022-11-30T03:21:39;6.90;99.90
6666;DHT22;3369;49.906;8.598;2022-11-30T03:24:05;6.90;99.90
6666;DHT22;3369;49.906;8.598;2022-11-30T03:26:31;6.90;99.90
6666;DHT22;3369;49.906;8.598;2022-11-30T03:28:57;6.90;99.90
6666;DHT22;3369;49.906;8.598;2022-11-30T03:31:22;6.80;99.90
6666;DHT22;3369;49.906;8.598;2022-11-30T03:33:48;6.80;99.90
6666;DHT22;3369;49.906;8.598;2022-11-30T03:36:13;6.90;99.90
6666;DHT22;3369;49.906;8.598;2022-11-30T03:38:39;6.90;99.90
6666;DHT22;3369;49.906;8.598;2022-11-30T03:41:07;6.80;99.90
6666;DHT22;3369;49.906;8.598;2022-11-30T03:43:34;6.80;99.90
6666;DHT22;3369;49.906;8.598;2022-11-30T03:46:00;6.80;99.90
6666;DHT22;3369;49.906;8.598;2022-11-30T03:48:25;6.80;99.90
6666;DHT22;3369;49.906;8.598;2022-11-30T03:50:51;6.80;99.90
6666;DHT22;3369;49.906;8.598;2022-11-30T03:53:18;6.80;99.90
6666;DHT22;3369;49.906;8.598;2022-11-30T03:55:44;6.80;99.90
6666;DHT22;3369;49.906;8.598;2022-11-30T03:58:10;6.80;99.90
6666;DHT22;3369;49.906;8.598;2022-11-30T04:00:37;6.80;99.90
6666;DHT22;3369;49.906;8.598;2022-11-30T04:03:03;6.80;99.90
6666;DHT22;3369;49.906;8.598;2022-11-30T04:05:28;6.80;99.90
6666;DHT22;3369;49.906;8.598;2022-11-30T04:07:54;6.80;99.90
6666;DHT22;3369;49.906;8.598;2022-11-30T04:10:20;6.80;99.90
6666;DHT22;3369;49.906;8.598;2022-11-30T04:12:45;6.80;99.90
6666;DHT22;3369;49.906;8.598;2022-11-30T04:15:11;6.80;99.90
6666;DHT22;3369;49.906;8.598;2022-11-30T04:17:36;6.80;99.90
6666;DHT22;3369;49.906;8.598;2022-11-30T04:20:03;6.80;99.90
6666;DHT22;3369;49.906;8.598;2022-11-30T04:22:29;6.80;99.90
6666;DHT22;3369;49.906;8.598;2022-11-30T04:24:54;6.90;99.90
6666;DHT22;3369;49.906;8.598;2022-11-30T04:27:20;6.80;99.90
6666;DHT22;3369;49.906;8.598;2022-11-30T04:29:45;6.80;99.90
6666;DHT22;3369;49.906;8.598;2022-11-30T04:32:11;6.90;99.90
6666;DHT22;3369;49.906;8.598;2022-11-30T04:34:37;6.80;99.90
6666;DHT22;3369;49.906;8.598;2022-11-30T04:37:02;6.80;99.90
6666;DHT22;3369;49.906;8.598;2022-11-30T04:39:28;6.80;99.90
6666;DHT22;3369;49.906;8.598;2022-11-30T04:41:53;6.80;99.90
6666;DHT22;3369;49.906;8.598;2022-11-30T04:44:19;6.80;99.90
6666;DHT22;3369;49.906;8.598;2022-11-30T04:46:45;6.80;99.90
6666;DHT22;3369;49.906;8.598;2022-11-30T04:49:10;6.80;99.90
6666;DHT22;3369;49.906;8.598;2022-11-30T04:51:36;6.80;99.90
6666;DHT22;3369;49.906;8.598;2022-11-30T04:54:01;6.80;99.90
6666;DHT22;3369;49.906;8.598;2022-11-30T04:56:27;6.80;99.90
6666;DHT22;3369;49.906;8.598;2022-11-30T04:58:52;6.80;99.90
6666;DHT22;3369;49.906;8.598;2022-11-30T05:01:18;6.80;99.90
6666;DHT22;3369;49.906;8.598;2022-11-30T05:03:44;6.80;99.90
6666;DHT22;3369;49.906;8.598;2022-11-30T05:06:09;6.80;99.90
6666;DHT22;3369;49.906;8.598;2022-11-30T05:08:35;6.80;99.90
6666;DHT22;3369;49.906;8.598;2022-11-30T05:11:01;6.80;99.90
6666;DHT22;3369;49.906;8.598;2022-11-30T05:13:26;6.80;99.90
6666;DHT22;3369;49.906;8.598;2022-11-30T05:15:52;6.80;99.90
6666;DHT22;3369;49.906;8.598;2022-11-30T05:18:18;6.80;99.90
6666;DHT22;3369;49.906;8.598;2022-11-30T05:20:48;6.90;99.90
6666;DHT22;3369;49.906;8.598;2022-11-30T05:23:15;6.80;99.90
6666;DHT22;3369;49.906;8.598;2022-11-30T05:25:41;6.80;99.90
6666;DHT22;3369;49.906;8.598;2022-11-30T05:28:07;6.90;99.90
6666;DHT22;3369;49.906;8.598;2022-11-30T05:30:32;6.80;99.90
6666;DHT22;3369;49.906;8.598;2022-11-30T05:32:58;6.80;99.90
6666;DHT22;3369;49.906;8.598;2022-11-30T05:35:23;6.90;99.90
6666;DHT22;3369;49.906;8.598;2022-11-30T05:37:49;6.90;99.90
6666;DHT22;3369;49.906;8.598;2022-11-30T05:40:15;6.90;99.90
6666;DHT22;3369;49.906;8.598;2022-11-30T05:42:40;6.90;99.90
6666;DHT22;3369;49.906;8.598;2022-11-30T05:45:06;6.90;99.90
6666;DHT22;3369;49.906;8.598;2022-11-30T05:47:32;6.90;99.90
6666;DHT22;3369;49.906;8.598;2022-11-30T05:49:58;6.90;99.90
6666;DHT22;3369;49.906;8.598;2022-11-30T05:52:23;6.90;99.90
6666;DHT22;3369;49.906;8.598;2022-11-30T05:54:49;6.90;99.90
6666;DHT22;3369;49.906;8.598;2022-11-30T05:57:14;6.90;99.90
6666;DHT22;3369;49.906;8.598;2022-11-30T05:59:40;6.90;99.90
6666;DHT22;3369;49.906;8.598;2022-11-30T06:02:06;6.90;99.90
6666;DHT22;3369;49.906;8.598;2022-11-30T06:04:32;6.90;99.90
6666;DHT22;3369;49.906;8.598;2022-11-30T06:06:58;6.90;99.90
6666;DHT22;3369;49.906;8.598;2022-11-30T06:09:24;6.90;99.90
6666;DHT22;3369;49.906;8.598;2022-11-30T06:11:50;6.90;99.90
6666;DHT22;3369;49.906;8.598;2022-11-30T06:14:15;6.80;99.90
6666;DHT22;3369;49.906;8.598;2022-11-30T06:16:41;6.90;99.90
6666;DHT22;3369;49.906;8.598;2022-11-30T06:19:07;6.90;99.90
6666;DHT22;3369;49.906;8.598;2022-11-30T06:21:32;6.90;99.90
6666;DHT22;3369;49.906;8.598;2022-11-30T06:23:58;6.90;99.90
6666;DHT22;3369;49.906;8.598;2022-11-30T06:26:24;6.90;99.90
6666;DHT22;3369;49.906;8.598;2022-11-30T06:28:49;6.90;99.90
6666;DHT22;3369;49.906;8.598;2022-11-30T06:31:15;6.80;99.90
6666;DHT22;3369;49.906;8.598;2022-11-30T06:33:41;6.90;99.90
6666;DHT22;3369;49.906;8.598;2022-11-30T06:36:07;6.90;99.90
6666;DHT22;3369;49.906;8.598;2022-11-30T06:38:32;6.90;99.90
6666;DHT22;3369;49.906;8.598;2022-11-30T06:41:03;6.90;99.90
6666;DHT22;3369;49.906;8.598;2022-11-30T06:43:32;6.90;99.90
6666;DHT22;3369;49.906;8.598;2022-11-30T06:45:58;6.90;99.90
6666;DHT22;3369;49.906;8.598;2022-11-30T06:48:24;6.90;99.90
6666;DHT22;3369;49.906;8.598;2022-11-30T06:50:49;6.90;99.90
6666;DHT22;3369;49.906;8.598;2022-11-30T06:53:15;6.90;99.90
6666;DHT22;3369;49.906;8.598;2022-11-30T06:55:41;6.90;99.90
6666;DHT22;3369;49.906;8.598;2022-11-30T06:58:08;6.90;99.90
6666;DHT22;3369;49.906;8.598;2022-11-30T07:00:35;6.90;99.90
6666;DHT22;3369;49.906;8.598;2022-11-30T07:03:03;6.90;99.90
6666;DHT22;3369;49.906;8.598;2022-11-30T07:05:30;7.00;99.90
6666;DHT22;3369;49.906;8.598;2022-11-30T07:07:57;7.00;99.90
6666;DHT22;3369;49.906;8.598;2022-11-30T07:10:22;6.90;99.90
6666;DHT22;3369;49.906;8.598;2022-11-30T07:12:48;7.00;99.90
6666;DHT22;3369;49.906;8.598;2022-11-30T07:15:14;7.00;99.90
6666;DHT22;3369;49.906;8.598;2022-11-30T07:17:40;7.00;99.90
6666;DHT22;3369;49.906;8.598;2022-11-30T07:20:06;7.00;99.90
6666;DHT22;3369;49.906;8.598;2022-11-30T07:22:32;7.00;99.90
6666;DHT22;3369;49.906;8.598;2022-11-30T07:24:57;7.00;99.90
6666;DHT22;3369;49.906;8.598;2022-11-30T07:27:42;7.00;99.90
6666;DHT22;3369;49.906;8.598;2022-11-30T07:30:07;7.00;99.90
6666;DHT22;3369;49.906;8.598;2022-11-30T07:32:33;7.00;99.90
6666;DHT22;3369;49.906;8.598;2022-11-30T07:34:59;7.00;99.90
6666;DHT22;3369;49.906;8.598;2022-11-30T07:37:25;7.00;99.90
6666;DHT22;3369;49.906;8.598;2022-11-30T07:39:50;7.00;99.90
6666;DHT22;3369;49.906;8.598;2022-11-30T07:42:16;7.10;99.90
6666;DHT22;3369;49.906;8.598;2022-11-30T07:44:42;7.10;99.90
6666;DHT22;3369;49.906;8.598;2022-11-30T07:47:07;7.10;99.90
6666;DHT22;3369;49.906;8.598;2022-11-30T07:49:33;7.10;99.90
6666;DHT22;3369;49.906;8.598;2022-11-30T07:51:59;7.10;99.90
6666;DHT22;3369;49.906;8.598;2022-11-30T07:54:24;7.10;99.90
6666;DHT22;3369;49.906;8.598;2022-11-30T07:56:50;7.10;99.90
6666;DHT22;3369;49.906;8.598;2022-11-30T07:59:16;7.10;99.90
6666;DHT22;3369;49.906;8.598;2022-11-30T08:01:41;7.10;99.90
6666;DHT22;3369;49.906;8.598;2022-11-30T08:04:07;7.10;99.90
6666;DHT22;3369;49.906;8.598;2022-11-30T08:06:33;7.10;99.90
6666;DHT22;3369;49.906;8.598;2022-11-30T08:09:02;7.20;99.90
6666;DHT22;3369;49.906;8.598;2022-11-30T08:11:30;7.20;99.90
6666;DHT22;3369;49.906;8.598;2022-11-30T08:13:57;7.20;99.90
6666;DHT22;3369;49.906;8.598;2022-11-30T08:16:25;7.20;99.90
6666;DHT22;3369;49.906;8.598;2022-11-30T08:18:51;7.20;99.90
6666;DHT22;3369;49.906;8.598;2022-11-30T08:21:18;7.20;99.90
6666;DHT22;3369;49.906;8.598;2022-11-30T08:23:50;7.20;99.90
6666;DHT22;3369;49.906;8.598;2022-11-30T08:26:21;7.20;99.90
6666;DHT22;3369;49.906;8.598;2022-11-30T08:28:49;7.30;99.90
6666;DHT22;3369;49.906;8.598;2022-11-30T08:31:26;7.30;99.90
6666;DHT22;3369;49.906;8.598;2022-11-30T08:33:57;7.30;99.90
6666;DHT22;3369;49.906;8.598;2022-11-30T08:36:24;7.30;99.90
6666;DHT22;3369;49.906;8.598;2022-11-30T08:38:50;7.30;99.90
6666;DHT22;3369;49.906;8.598;2022-11-30T08:41:18;7.30;99.90
6666;DHT22;3369;49.906;8.598;2022-11-30T08:43:44;7.30;99.90
6666;DHT22;3369;49.906;8.598;2022-11-30T08:46:12;7.40;99.90
6666;DHT22;3369;49.906;8.598;2022-11-30T08:48:38;7.40;99.90
6666;DHT22;3369;49.906;8.598;2022-11-30T08:51:06;7.40;99.90
6666;DHT22;3369;49.906;8.598;2022-11-30T08:53:32;7.40;99.90
6666;DHT22;3369;49.906;8.598;2022-11-30T08:56:04;7.40;99.90
6666;DHT22;3369;49.906;8.598;2022-11-30T08:58:32;7.50;99.90
6666;DHT22;3369;49.906;8.598;2022-11-30T09:01:17;7.40;99.90
6666;DHT22;3369;49.906;8.598;2022-11-30T09:03:44;7.50;99.90
6666;DHT22;3369;49.906;8.598;2022-11-30T09:06:26;7.50;99.90
6666;DHT22;3369;49.906;8.598;2022-11-30T09:08:54;7.50;99.90
6666;DHT22;3369;49.906;8.598;2022-11-30T09:11:31;7.50;99.90
6666;DHT22;3369;49.906;8.598;2022-11-30T09:14:00;7.60;99.90
6666;DHT22;3369;49.906;8.598;2022-11-30T09:16:26;7.60;99.90
6666;DHT22;3369;49.906;8.598;2022-11-30T09:18:52;7.50;99.90
6666;DHT22;3369;49.906;8.598;2022-11-30T09:21:21;7.60;99.90
6666;DHT22;3369;49.906;8.598;2022-11-30T09:23:48;7.60;99.90
6666;DHT22;3369;49.906;8.598;2022-11-30T09:26:16;7.60;99.90
6666;DHT22;3369;49.906;8.598;2022-11-30T09:28:43;7.60;99.90
6666;DHT22;3369;49.906;8.598;2022-11-30T09:31:12;7.60;99.90
6666;DHT22;3369;49.906;8.598;2022-11-30T09:33:39;7.60;99.90
6666;DHT22;3369;49.906;8.598;2022-11-30T09:36:06;7.60;99.90
6666;DHT22;3369;49.906;8.598;2022-11-30T09:38:33;7.60;99.90
6666;DHT22;3369;49.906;8.598;2022-11-30T09:46:42;7.60;99.90
6666;DHT22;3369;49.906;8.598;2022-11-30T09:49:17;7.60;99.90
6666;DHT22;3369;49.906;8.598;2022-11-30T09:51:49;7.60;99.90
6666;DHT22;3369;49.906;8.598;2022-11-30T09:54:29;7.60;99.90
6666;DHT22;3369;49.906;8.598;2022-11-30T09:57:28;7.60;99.90
6666;DHT22;3369;49.906;8.598;2022-11-30T09:59:59;7.60;99.90
6666;DHT22;3369;49.906;8.598;2022-11-30T10:02:28;7.60;99.90
6666;DHT22;3369;49.906;8.598;2022-11-30T10:04:55;7.60;99.90
6666;DHT22;3369;49.906;8.598;2022-11-30T10:07:50;7.50;99.90
6666;DHT22;3369;49.906;8.598;2022-11-30T10:24:49;7.50;99.90
6666;DHT22;3369;49.906;8.598;2022-11-30T10:30:16;7.60;99.90
6666;DHT22;3369;49.906;8.598;2022-11-30T10:32:44;7.60;99.90
6666;DHT22;3369;49.906;8.598;2022-11-30T10:35:38;7.60;99.90
6666;DHT22;3369;49.906;8.598;2022-11-30T10:38:18;7.60;99.90
6666;DHT22;3369;49.906;8.598;2022-11-30T10:40:56;7.60;99.90
6666;DHT22;3369;49.906;8.598;2022-11-30T10:43:32;7.60;99.90
6666;DHT22;3369;49.906;8.598;2022-11-30T10:46:03;7.60;99.90
6666;DHT22;3369;49.906;8.598;2022-11-30T10:48:42;7.60;99.90
6666;DHT22;3369;49.906;8.598;2022-11-30T10:51:10;7.60;99.90
6666;DHT22;3369;49.906;8.598;2022-11-30T10:53:36;7.60;99.90
6666;DHT22;3369;49.906;8.598;2022-11-30T10:56:11;7.60;99.90
6666;DHT22;3369;49.906;8.598;2022-11-30T10:58:59;7.60;99.90
6666;DHT22;3369;49.906;8.598;2022-11-30T11:01:32;7.60;99.90
6666;DHT22;3369;49.906;8.598;2022-11-30T11:04:16;7.60;99.90
6666;DHT22;3369;49.906;8.598;2022-11-30T11:06:50;7.70;99.90
6666;DHT22;3369;49.906;8.598;2022-11-30T11:09:39;7.70;99.90
6666;DHT22;3369;49.906;8.598;2022-11-30T11:12:24;7.70;99.90
6666;DHT22;3369;49.906;8.598;2022-11-30T11:17:33;7.70;99.90
6666;DHT22;3369;49.906;8.598;2022-11-30T11:19:58;7.70;99.90
6666;DHT22;3369;49.906;8.598;2022-11-30T11:22:30;7.70;99.90
6666;DHT22;3369;49.906;8.598;2022-11-30T11:25:20;7.70;99.90
6666;DHT22;3369;49.906;8.598;2022-11-30T11:28:02;7.80;99.90
6666;DHT22;3369;49.906;8.598;2022-11-30T11:30:30;7.80;99.90
6666;DHT22;3369;49.906;8.598;2022-11-30T11:35:34;7.80;99.90
6666;DHT22;3369;49.906;8.598;2022-11-30T11:38:00;7.80;99.90
6666;DHT22;3369;49.906;8.598;2022-11-30T11:40:26;7.80;99.90
6666;DHT22;3369;49.906;8.598;2022-11-30T11:42:53;7.80;99.90
6666;DHT22;3369;49.906;8.598;2022-11-30T11:45:27;7.80;99.90
6666;DHT22;3369;49.906;8.598;2022-11-30T11:48:00;7.80;99.90
6666;DHT22;3369;49.906;8.598;2022-11-30T11:50:34;7.90;99.90
6666;DHT22;3369;49.906;8.598;2022-11-30T11:53:20;7.90;99.90
6666;DHT22;3369;49.906;8.598;2022-11-30T11:55:55;7.90;99.90
6666;DHT22;3369;49.906;8.598;2022-11-30T11:58:30;7.90;99.90
6666;DHT22;3369;49.906;8.598;2022-11-30T12:00:59;7.90;99.90
6666;DHT22;3369;49.906;8.598;2022-11-30T12:04:31;7.90;99.90
6666;DHT22;3369;49.906;8.598;2022-11-30T12:06:39;7.90;99.90
6666;DHT22;3369;49.906;8.598;2022-11-30T12:09:14;8.00;99.90
6666;DHT22;3369;49.906;8.598;2022-11-30T12:11:42;8.00;99.90
6666;DHT22;3369;49.906;8.598;2022-11-30T12:14:15;8.00;99.90
6666;DHT22;3369;49.906;8.598;2022-11-30T12:20:22;8.00;99.90
6666;DHT22;3369;49.906;8.598;2022-11-30T12:23:06;8.00;99.90
6666;DHT22;3369;49.906;8.598;2022-11-30T12:29:26;8.10;99.90
6666;DHT22;3369;49.906;8.598;2022-11-30T12:32:25;8.10;99.90
6666;DHT22;3369;49.906;8.598;2022-11-30T12:45:14;8.10;99.90
6666;DHT22;3369;49.906;8.598;2022-11-30T12:48:00;8.20;99.90
6666;DHT22;3369;49.906;8.598;2022-11-30T12:53:40;8.20;99.90
6666;DHT22;3369;49.906;8.598;2022-11-30T12:59:08;8.20;99.90
6666;DHT22;3369;49.906;8.598;2022-11-30T13:04:52;8.20;99.90
6666;DHT22;3369;49.906;8.598;2022-11-30T13:07:41;8.30;99.90
6666;DHT22;3369;49.906;8.598;2022-11-30T13:12:38;8.30;99.90
6666;DHT22;3369;49.906;8.598;2022-11-30T13:15:13;8.20;99.90
6666;DHT22;3369;49.906;8.598;2022-11-30T13:17:40;8.20;99.90
6666;DHT22;3369;49.906;8.598;2022-11-30T13:22:48;8.20;99.90
6666;DHT22;3369;49.906;8.598;2022-11-30T13:27:51;8.20;99.90
6666;DHT22;3369;49.906;8.598;2022-11-30T13:30:27;8.20;99.90
6666;DHT22;3369;49.906;8.598;2022-11-30T13:32:56;8.20;99.90
6666;DHT22;3369;49.906;8.598;2022-11-30T13:35:51;8.20;99.90
6666;DHT22;3369;49.906;8.598;2022-11-30T13:38:19;8.20;99.90
6666;DHT22;3369;49.906;8.598;2022-11-30T13:40:59;8.30;99.90
6666;DHT22;3369;49.906;8.598;2022-11-30T13:43:28;8.20;99.90
6666;DHT22;3369;49.906;8.598;2022-11-30T13:46:21;8.20;99.90
6666;DHT22;3369;49.906;8.598;2022-11-30T13:48:48;8.20;99.90
6666;DHT22;3369;49.906;8.598;2022-11-30T13:51:38;8.20;99.90
6666;DHT22;3369;49.906;8.598;2022-11-30T13:57:01;8.20;99.90
6666;DHT22;3369;49.906;8.598;2022-11-30T13:59:34;8.20;99.90
6666;DHT22;3369;49.906;8.598;2022-11-30T14:10:32;8.20;99.90
6666;DHT22;3369;49.906;8.598;2022-11-30T14:17:52;8.20;99.90
6666;DHT22;3369;49.906;8.598;2022-11-30T14:20:20;8.20;99.90
6666;DHT22;3369;49.906;8.598;2022-11-30T14:22:49;8.20;99.90
6666;DHT22;3369;49.906;8.598;2022-11-30T14:25:19;8.20;99.90
6666;DHT22;3369;49.906;8.598;2022-11-30T14:27:47;8.20;99.90
6666;DHT22;3369;49.906;8.598;2022-11-30T14:30:17;8.20;99.90
6666;DHT22;3369;49.906;8.598;2022-11-30T14:32:48;8.20;99.90
6666;DHT22;3369;49.906;8.598;2022-11-30T14:55:59;7.90;99.90
6666;DHT22;3369;49.906;8.598;2022-11-30T15:01:04;7.90;99.90
6666;DHT22;3369;49.906;8.598;2022-11-30T15:03:38;7.90;99.90
6666;DHT22;3369;49.906;8.598;2022-11-30T15:06:04;7.80;99.90
6666;DHT22;3369;49.906;8.598;2022-11-30T15:08:34;7.80;99.90
6666;DHT22;3369;49.906;8.598;2022-11-30T15:11:09;7.90;99.90
6666;DHT22;3369;49.906;8.598;2022-11-30T15:13:40;7.90;99.90
6666;DHT22;3369;49.906;8.598;2022-11-30T15:16:19;7.90;99.90
6666;DHT22;3369;49.906;8.598;2022-11-30T15:18:46;7.90;99.90
6666;DHT22;3369;49.906;8.598;2022-11-30T15:21:21;7.90;99.90
6666;DHT22;3369;49.906;8.598;2022-11-30T15:23:49;7.90;99.90
6666;DHT22;3369;49.906;8.598;2022-11-30T15:26:21;7.90;99.90
6666;DHT22;3369;49.906;8.598;2022-11-30T15:29:06;7.90;99.90
6666;DHT22;3369;49.906;8.598;2022-11-30T15:31:40;7.90;99.90
6666;DHT22;3369;49.906;8.598;2022-11-30T15:37:00;7.80;99.90
6666;DHT22;3369;49.906;8.598;2022-11-30T15:39:27;7.80;99.90
6666;DHT22;3369;49.906;8.598;2022-11-30T15:44:39;7.80;99.90
6666;DHT22;3369;49.906;8.598;2022-11-30T15:47:21;7.80;99.90
6666;DHT22;3369;49.906;8.598;2022-11-30T15:49:52;7.80;99.90
6666;DHT22;3369;49.906;8.598;2022-11-30T15:52:19;7.80;99.90
6666;DHT22;3369;49.906;8.598;2022-11-30T15:57:17;7.70;99.90
6666;DHT22;3369;49.906;8.598;2022-11-30T16:00:22;7.80;99.90
6666;DHT22;3369;49.906;8.598;2022-11-30T16:02:46;7.80;99.90
6666;DHT22;3369;49.906;8.598;2022-11-30T16:07:51;7.80;99.90
6666;DHT22;3369;49.906;8.598;2022-11-30T16:10:26;7.80;99.90
6666;DHT22;3369;49.906;8.598;2022-11-30T16:12:54;7.80;99.90
6666;DHT22;3369;49.906;8.598;2022-11-30T16:15:26;7.80;99.90
6666;DHT22;3369;49.906;8.598;2022-11-30T16:17:57;7.80;99.90
6666;DHT22;3369;49.906;8.598;2022-11-30T16:20:24;7.80;99.90
6666;DHT22;3369;49.906;8.598;2022-11-30T16:22:50;7.70;99.90
6666;DHT22;3369;49.906;8.598;2022-11-30T16:25:21;7.80;99.90
6666;DHT22;3369;49.906;8.598;2022-11-30T16:27:47;7.80;99.90
6666;DHT22;3369;49.906;8.598;2022-11-30T16:30:15;7.70;99.90
6666;DHT22;3369;49.906;8.598;2022-11-30T16:32:41;7.70;99.90
6666;DHT22;3369;49.906;8.598;2022-11-30T16:35:23;7.70;99.90
6666;DHT22;3369;49.906;8.598;2022-11-30T16:37:50;7.70;99.90
6666;DHT22;3369;49.906;8.598;2022-11-30T16:40:17;7.70;99.90
6666;DHT22;3369;49.906;8.598;2022-11-30T16:42:43;7.70;99.90
6666;DHT22;3369;49.906;8.598;2022-11-30T16:45:23;7.70;99.90
6666;DHT22;3369;49.906;8.598;2022-11-30T16:47:50;7.60;99.90
6666;DHT22;3369;49.906;8.598;2022-11-30T16:50:16;7.60;99.90
6666;DHT22;3369;49.906;8.598;2022-11-30T16:52:42;7.70;99.90
6666;DHT22;3369;49.906;8.598;2022-11-30T16:55:12;7.60;99.90
6666;DHT22;3369;49.906;8.598;2022-11-30T16:57:38;7.70;99.90
6666;DHT22;3369;49.906;8.598;2022-11-30T17:00:05;7.70;99.90
6666;DHT22;3369;49.906;8.598;2022-11-30T17:02:31;7.70;99.90
6666;DHT22;3369;49.906;8.598;2022-11-30T17:04:58;7.70;99.90
6666;DHT22;3369;49.906;8.598;2022-11-30T17:07:24;7.70;99.90
6666;DHT22;3369;49.906;8.598;2022-11-30T17:09:49;7.70;99.90
6666;DHT22;3369;49.906;8.598;2022-11-30T17:12:15;7.70;99.90
6666;DHT22;3369;49.906;8.598;2022-11-30T17:14:41;7.70;99.90
6666;DHT22;3369;49.906;8.598;2022-11-30T17:17:07;7.60;99.90
6666;DHT22;3369;49.906;8.598;2022-11-30T17:19:33;7.60;99.90
6666;DHT22;3369;49.906;8.598;2022-11-30T17:21:58;7.60;99.90
6666;DHT22;3369;49.906;8.598;2022-11-30T17:24:25;7.60;99.90
6666;DHT22;3369;49.906;8.598;2022-11-30T17:26:50;7.60;99.90
6666;DHT22;3369;49.906;8.598;2022-11-30T17:29:16;7.60;99.90
6666;DHT22;3369;49.906;8.598;2022-11-30T17:31:42;7.60;99.90
6666;DHT22;3369;49.906;8.598;2022-11-30T17:34:07;7.60;99.90
6666;DHT22;3369;49.906;8.598;2022-11-30T17:36:33;7.60;99.90
6666;DHT22;3369;49.906;8.598;2022-11-30T17:39:06;7.60;99.90
6666;DHT22;3369;49.906;8.598;2022-11-30T17:41:32;7.60;99.90
6666;DHT22;3369;49.906;8.598;2022-11-30T17:43:59;7.60;99.90
6666;DHT22;3369;49.906;8.598;2022-11-30T17:46:25;7.60;99.90
6666;DHT22;3369;49.906;8.598;2022-11-30T17:48:50;7.50;99.90
6666;DHT22;3369;49.906;8.598;2022-11-30T17:51:17;7.50;99.90
6666;DHT22;3369;49.906;8.598;2022-11-30T17:53:42;7.50;99.90
6666;DHT22;3369;49.906;8.598;2022-11-30T17:56:15;7.50;99.90
6666;DHT22;3369;49.906;8.598;2022-11-30T17:58:43;7.50;99.90
6666;DHT22;3369;49.906;8.598;2022-11-30T18:01:15;7.50;99.90
6666;DHT22;3369;49.906;8.598;2022-11-30T18:03:41;7.50;99.90
6666;DHT22;3369;49.906;8.598;2022-11-30T18:06:07;7.50;99.90
6666;DHT22;3369;49.906;8.598;2022-11-30T18:08:33;7.50;99.90
6666;DHT22;3369;49.906;8.598;2022-11-30T18:10:58;7.50;99.90
6666;DHT22;3369;49.906;8.598;2022-11-30T18:13:26;7.50;99.90
6666;DHT22;3369;49.906;8.598;2022-11-30T18:15:52;7.40;99.90
6666;DHT22;3369;49.906;8.598;2022-11-30T18:18:17;7.50;99.90
6666;DHT22;3369;49.906;8.598;2022-11-30T18:20:43;7.50;99.90
6666;DHT22;3369;49.906;8.598;2022-11-30T18:23:09;7.50;99.90
6666;DHT22;3369;49.906;8.598;2022-11-30T18:25:35;7.50;99.90
6666;DHT22;3369;49.906;8.598;2022-11-30T18:28:01;7.50;99.90
6666;DHT22;3369;49.906;8.598;2022-11-30T18:30:26;7.40;99.90
6666;DHT22;3369;49.906;8.598;2022-11-30T18:32:52;7.40;99.90
6666;DHT22;3369;49.906;8.598;2022-11-30T18:35:18;7.40;99.90
6666;DHT22;3369;49.906;8.598;2022-11-30T18:37:43;7.40;99.90
6666;DHT22;3369;49.906;8.598;2022-11-30T18:40:10;7.40;99.90
6666;DHT22;3369;49.906;8.598;2022-11-30T18:42:35;7.40;99.90
6666;DHT22;3369;49.906;8.598;2022-11-30T18:45:01;7.40;99.90
6666;DHT22;3369;49.906;8.598;2022-11-30T18:47:27;7.40;99.90
6666;DHT22;3369;49.906;8.598;2022-11-30T18:49:52;7.40;99.90